sensor_id;sensor_type;location;lat;lon;timestamp;P1;durP1;ratioP1;P2;durP2;ratioP2
68923;SDS011;55961;52.156;20.942;2023-07-08T00:00:45;8.57;;;4.23;;
68923;SDS011;55961;52.156;20.942;2023-07-08T00:03:35;10.38;;;4.68;;
68923;SDS011;55961;52.156;20.942;2023-07-08T00:06:01;9.98;;;4.60;;
68923;SDS011;55961;52.156;20.942;2023-07-08T00:08:27;10.48;;;5.07;;
68923;SDS011;55961;52.156;20.942;2023-07-08T00:10:53;9.90;;;5.63;;
68923;SDS011;55961;52.156;20.942;2023-07-08T00:13:20;12.75;;;6.43;;
68923;SDS011;55961;52.156;20.942;2023-07-08T00:15:46;15.35;;;5.72;;
68923;SDS011;55961;52.156;20.942;2023-07-08T00:18:14;9.65;;;5.47;;
68923;SDS011;55961;52.156;20.942;2023-07-08T00:20:45;11.97;;;5.07;;
68923;SDS011;55961;52.156;20.942;2023-07-08T00:23:13;12.15;;;4.80;;
68923;SDS011;55961;52.156;20.942;2023-07-08T00:25:39;10.60;;;5.28;;
68923;SDS011;55961;52.156;20.942;2023-07-08T00:28:10;16.35;;;5.20;;
68923;SDS011;55961;52.156;20.942;2023-07-08T00:30:38;12.25;;;5.38;;
68923;SDS011;55961;52.156;20.942;2023-07-08T00:33:05;9.27;;;5.23;;
68923;SDS011;55961;52.156;20.942;2023-07-08T00:35:38;10.70;;;5.13;;
68923;SDS011;55961;52.156;20.942;2023-07-08T00:40:50;10.38;;;5.45;;
68923;SDS011;55961;52.156;20.942;2023-07-08T00:43:29;10.75;;;5.20;;
68923;SDS011;55961;52.156;20.942;2023-07-08T00:46:03;14.87;;;6.00;;
68923;SDS011;55961;52.156;20.942;2023-07-08T00:48:49;10.18;;;5.45;;
68923;SDS011;55961;52.156;20.942;2023-07-08T00:51:17;10.18;;;4.93;;
68923;SDS011;55961;52.156;20.942;2023-07-08T00:53:44;10.15;;;4.53;;
68923;SDS011;55961;52.156;20.942;2023-07-08T00:56:31;10.90;;;4.90;;
68923;SDS011;55961;52.156;20.942;2023-07-08T00:59:01;11.43;;;4.88;;
68923;SDS011;55961;52.156;20.942;2023-07-08T01:01:32;10.32;;;4.95;;
68923;SDS011;55961;52.156;20.942;2023-07-08T01:04:05;11.43;;;5.13;;
68923;SDS011;55961;52.156;20.942;2023-07-08T01:06:36;10.02;;;5.82;;
68923;SDS011;55961;52.156;20.942;2023-07-08T01:09:05;14.03;;;5.20;;
68923;SDS011;55961;52.156;20.942;2023-07-08T01:11:34;11.48;;;5.13;;
68923;SDS011;55961;52.156;20.942;2023-07-08T01:14:03;12.90;;;4.95;;
68923;SDS011;55961;52.156;20.942;2023-07-08T01:16:33;13.90;;;4.80;;
68923;SDS011;55961;52.156;20.942;2023-07-08T01:19:02;13.35;;;5.15;;
68923;SDS011;55961;52.156;20.942;2023-07-08T01:21:37;11.50;;;5.43;;
68923;SDS011;55961;52.156;20.942;2023-07-08T01:24:07;9.43;;;5.00;;
68923;SDS011;55961;52.156;20.942;2023-07-08T01:26:37;11.82;;;5.30;;
68923;SDS011;55961;52.156;20.942;2023-07-08T01:29:09;8.52;;;4.90;;
68923;SDS011;55961;52.156;20.942;2023-07-08T01:31:36;10.80;;;4.93;;
68923;SDS011;55961;52.156;20.942;2023-07-08T01:34:02;7.73;;;4.67;;
68923;SDS011;55961;52.156;20.942;2023-07-08T01:36:29;12.50;;;5.25;;
68923;SDS011;55961;52.156;20.942;2023-07-08T01:39:02;8.82;;;4.95;;
68923;SDS011;55961;52.156;20.942;2023-07-08T01:41:28;11.13;;;5.22;;
68923;SDS011;55961;52.156;20.942;2023-07-08T01:43:54;9.25;;;5.00;;
68923;SDS011;55961;52.156;20.942;2023-07-08T01:46:22;9.13;;;5.37;;
68923;SDS011;55961;52.156;20.942;2023-07-08T01:48:53;11.15;;;5.03;;
68923;SDS011;55961;52.156;20.942;2023-07-08T01:51:23;12.00;;;5.00;;
68923;SDS011;55961;52.156;20.942;2023-07-08T01:53:51;9.98;;;5.20;;
68923;SDS011;55961;52.156;20.942;2023-07-08T01:56:17;9.93;;;5.03;;
68923;SDS011;55961;52.156;20.942;2023-07-08T01:58:43;8.98;;;5.03;;
68923;SDS011;55961;52.156;20.942;2023-07-08T02:01:09;12.38;;;5.28;;
68923;SDS011;55961;52.156;20.942;2023-07-08T02:03:36;9.97;;;4.97;;
68923;SDS011;55961;52.156;20.942;2023-07-08T02:06:02;8.40;;;5.40;;
68923;SDS011;55961;52.156;20.942;2023-07-08T02:08:29;12.00;;;4.72;;
68923;SDS011;55961;52.156;20.942;2023-07-08T02:10:56;9.50;;;5.40;;
68923;SDS011;55961;52.156;20.942;2023-07-08T02:13:23;10.35;;;5.03;;
68923;SDS011;55961;52.156;20.942;2023-07-08T02:15:50;8.83;;;5.30;;
68923;SDS011;55961;52.156;20.942;2023-07-08T02:18:17;9.63;;;4.82;;
68923;SDS011;55961;52.156;20.942;2023-07-08T02:20:46;9.80;;;5.30;;
68923;SDS011;55961;52.156;20.942;2023-07-08T02:23:13;12.68;;;5.90;;
68923;SDS011;55961;52.156;20.942;2023-07-08T02:25:39;12.13;;;5.32;;
68923;SDS011;55961;52.156;20.942;2023-07-08T02:28:05;9.87;;;5.17;;
68923;SDS011;55961;52.156;20.942;2023-07-08T02:30:31;14.05;;;5.22;;
68923;SDS011;55961;52.156;20.942;2023-07-08T02:32:57;11.38;;;4.50;;
68923;SDS011;55961;52.156;20.942;2023-07-08T02:35:27;9.37;;;5.20;;
68923;SDS011;55961;52.156;20.942;2023-07-08T02:37:55;13.25;;;5.53;;
68923;SDS011;55961;52.156;20.942;2023-07-08T02:40:23;8.38;;;5.22;;
68923;SDS011;55961;52.156;20.942;2023-07-08T02:42:50;9.20;;;5.45;;
68923;SDS011;55961;52.156;20.942;2023-07-08T02:45:16;8.50;;;5.10;;
68923;SDS011;55961;52.156;20.942;2023-07-08T02:47:43;11.48;;;5.90;;
68923;SDS011;55961;52.156;20.942;2023-07-08T02:50:09;10.35;;;5.32;;
68923;SDS011;55961;52.156;20.942;2023-07-08T02:52:36;10.57;;;5.72;;
68923;SDS011;55961;52.156;20.942;2023-07-08T02:55:02;14.50;;;6.17;;
68923;SDS011;55961;52.156;20.942;2023-07-08T02:57:29;12.30;;;6.13;;
68923;SDS011;55961;52.156;20.942;2023-07-08T02:59:55;10.63;;;6.40;;
68923;SDS011;55961;52.156;20.942;2023-07-08T03:02:21;11.55;;;6.60;;
68923;SDS011;55961;52.156;20.942;2023-07-08T03:04:48;12.30;;;5.90;;
68923;SDS011;55961;52.156;20.942;2023-07-08T03:07:16;12.43;;;6.10;;
68923;SDS011;55961;52.156;20.942;2023-07-08T03:09:42;13.13;;;6.65;;
68923;SDS011;55961;52.156;20.942;2023-07-08T03:12:10;10.93;;;6.13;;
68923;SDS011;55961;52.156;20.942;2023-07-08T03:14:36;9.98;;;6.50;;
68923;SDS011;55961;52.156;20.942;2023-07-08T03:17:03;12.70;;;6.90;;
68923;SDS011;55961;52.156;20.942;2023-07-08T03:19:29;13.67;;;6.47;;
68923;SDS011;55961;52.156;20.942;2023-07-08T03:21:55;12.00;;;6.55;;
68923;SDS011;55961;52.156;20.942;2023-07-08T03:24:21;12.30;;;6.28;;
68923;SDS011;55961;52.156;20.942;2023-07-08T03:26:48;11.77;;;6.57;;
68923;SDS011;55961;52.156;20.942;2023-07-08T03:29:19;10.97;;;6.40;;
68923;SDS011;55961;52.156;20.942;2023-07-08T03:31:46;10.13;;;6.75;;
68923;SDS011;55961;52.156;20.942;2023-07-08T03:34:12;13.40;;;7.25;;
68923;SDS011;55961;52.156;20.942;2023-07-08T03:36:50;14.00;;;7.60;;
68923;SDS011;55961;52.156;20.942;2023-07-08T03:39:17;13.15;;;7.45;;
68923;SDS011;55961;52.156;20.942;2023-07-08T03:41:44;11.77;;;7.87;;
68923;SDS011;55961;52.156;20.942;2023-07-08T03:44:11;12.18;;;7.15;;
68923;SDS011;55961;52.156;20.942;2023-07-08T03:46:38;10.60;;;8.00;;
68923;SDS011;55961;52.156;20.942;2023-07-08T03:49:04;12.25;;;7.70;;
68923;SDS011;55961;52.156;20.942;2023-07-08T03:51:32;11.80;;;7.88;;
68923;SDS011;55961;52.156;20.942;2023-07-08T03:53:59;11.73;;;7.67;;
68923;SDS011;55961;52.156;20.942;2023-07-08T03:56:26;10.77;;;7.40;;
68923;SDS011;55961;52.156;20.942;2023-07-08T03:58:52;14.13;;;7.40;;
68923;SDS011;55961;52.156;20.942;2023-07-08T04:01:19;12.70;;;7.97;;
68923;SDS011;55961;52.156;20.942;2023-07-08T04:03:47;11.77;;;7.17;;
68923;SDS011;55961;52.156;20.942;2023-07-08T04:06:13;12.93;;;7.75;;
68923;SDS011;55961;52.156;20.942;2023-07-08T04:08:40;12.57;;;8.20;;
68923;SDS011;55961;52.156;20.942;2023-07-08T04:11:06;10.98;;;8.13;;
68923;SDS011;55961;52.156;20.942;2023-07-08T04:13:33;12.55;;;8.00;;
68923;SDS011;55961;52.156;20.942;2023-07-08T04:16:00;11.47;;;7.93;;
68923;SDS011;55961;52.156;20.942;2023-07-08T04:18:28;11.93;;;7.30;;
68923;SDS011;55961;52.156;20.942;2023-07-08T04:20:55;15.30;;;8.70;;
68923;SDS011;55961;52.156;20.942;2023-07-08T04:23:23;12.77;;;7.88;;
68923;SDS011;55961;52.156;20.942;2023-07-08T04:25:50;11.67;;;8.00;;
68923;SDS011;55961;52.156;20.942;2023-07-08T04:28:19;12.95;;;7.85;;
68923;SDS011;55961;52.156;20.942;2023-07-08T04:30:45;13.10;;;7.82;;
68923;SDS011;55961;52.156;20.942;2023-07-08T04:33:11;12.23;;;7.53;;
68923;SDS011;55961;52.156;20.942;2023-07-08T04:35:39;11.47;;;7.17;;
68923;SDS011;55961;52.156;20.942;2023-07-08T04:38:06;11.77;;;6.88;;
68923;SDS011;55961;52.156;20.942;2023-07-08T04:40:43;12.40;;;7.03;;
68923;SDS011;55961;52.156;20.942;2023-07-08T04:43:09;10.23;;;6.55;;
68923;SDS011;55961;52.156;20.942;2023-07-08T04:45:36;10.18;;;6.63;;
68923;SDS011;55961;52.156;20.942;2023-07-08T04:48:03;12.03;;;6.90;;
68923;SDS011;55961;52.156;20.942;2023-07-08T04:50:37;11.32;;;6.93;;
68923;SDS011;55961;52.156;20.942;2023-07-08T04:53:02;13.38;;;6.78;;
68923;SDS011;55961;52.156;20.942;2023-07-08T04:55:28;11.57;;;7.05;;
68923;SDS011;55961;52.156;20.942;2023-07-08T04:57:54;10.53;;;6.80;;
68923;SDS011;55961;52.156;20.942;2023-07-08T05:00:20;11.05;;;6.60;;
68923;SDS011;55961;52.156;20.942;2023-07-08T05:02:47;14.05;;;6.43;;
68923;SDS011;55961;52.156;20.942;2023-07-08T05:05:14;10.43;;;6.63;;
68923;SDS011;55961;52.156;20.942;2023-07-08T05:07:39;9.93;;;5.53;;
68923;SDS011;55961;52.156;20.942;2023-07-08T05:10:06;10.38;;;5.97;;
68923;SDS011;55961;52.156;20.942;2023-07-08T05:12:32;10.70;;;6.18;;
68923;SDS011;55961;52.156;20.942;2023-07-08T05:14:58;17.33;;;7.05;;
68923;SDS011;55961;52.156;20.942;2023-07-08T05:17:24;13.47;;;6.63;;
68923;SDS011;55961;52.156;20.942;2023-07-08T05:19:50;10.52;;;6.45;;
68923;SDS011;55961;52.156;20.942;2023-07-08T05:22:17;9.38;;;5.90;;
68923;SDS011;55961;52.156;20.942;2023-07-08T05:24:43;15.40;;;6.50;;
68923;SDS011;55961;52.156;20.942;2023-07-08T05:27:09;11.60;;;6.60;;
68923;SDS011;55961;52.156;20.942;2023-07-08T05:29:39;11.23;;;6.25;;
68923;SDS011;55961;52.156;20.942;2023-07-08T05:32:04;12.65;;;6.07;;
68923;SDS011;55961;52.156;20.942;2023-07-08T05:34:31;11.60;;;6.30;;
68923;SDS011;55961;52.156;20.942;2023-07-08T05:36:56;10.17;;;5.70;;
68923;SDS011;55961;52.156;20.942;2023-07-08T05:39:23;33.05;;;8.57;;
68923;SDS011;55961;52.156;20.942;2023-07-08T05:41:48;8.57;;;5.70;;
68923;SDS011;55961;52.156;20.942;2023-07-08T05:44:15;12.90;;;5.93;;
68923;SDS011;55961;52.156;20.942;2023-07-08T05:46:40;11.73;;;5.37;;
68923;SDS011;55961;52.156;20.942;2023-07-08T05:49:06;10.15;;;5.95;;
68923;SDS011;55961;52.156;20.942;2023-07-08T05:51:33;10.27;;;5.68;;
68923;SDS011;55961;52.156;20.942;2023-07-08T05:53:59;9.77;;;5.03;;
68923;SDS011;55961;52.156;20.942;2023-07-08T05:56:25;9.48;;;5.43;;
68923;SDS011;55961;52.156;20.942;2023-07-08T05:58:51;10.90;;;5.43;;
68923;SDS011;55961;52.156;20.942;2023-07-08T06:01:17;9.00;;;5.23;;
68923;SDS011;55961;52.156;20.942;2023-07-08T06:03:43;12.32;;;5.22;;
68923;SDS011;55961;52.156;20.942;2023-07-08T06:06:09;7.97;;;5.07;;
68923;SDS011;55961;52.156;20.942;2023-07-08T06:08:35;8.43;;;4.53;;
68923;SDS011;55961;52.156;20.942;2023-07-08T06:11:01;7.00;;;4.70;;
68923;SDS011;55961;52.156;20.942;2023-07-08T06:13:27;8.45;;;4.80;;
68923;SDS011;55961;52.156;20.942;2023-07-08T06:15:53;9.65;;;4.70;;
68923;SDS011;55961;52.156;20.942;2023-07-08T06:18:19;13.37;;;4.90;;
68923;SDS011;55961;52.156;20.942;2023-07-08T06:20:54;9.32;;;4.50;;
68923;SDS011;55961;52.156;20.942;2023-07-08T06:23:23;8.68;;;4.78;;
68923;SDS011;55961;52.156;20.942;2023-07-08T06:25:49;8.75;;;4.50;;
68923;SDS011;55961;52.156;20.942;2023-07-08T06:28:16;10.07;;;4.60;;
68923;SDS011;55961;52.156;20.942;2023-07-08T06:30:42;8.87;;;4.03;;
68923;SDS011;55961;52.156;20.942;2023-07-08T06:33:09;10.75;;;4.00;;
68923;SDS011;55961;52.156;20.942;2023-07-08T06:35:37;7.40;;;4.10;;
68923;SDS011;55961;52.156;20.942;2023-07-08T06:38:05;9.98;;;4.25;;
68923;SDS011;55961;52.156;20.942;2023-07-08T06:40:32;9.98;;;4.35;;
68923;SDS011;55961;52.156;20.942;2023-07-08T06:43:04;9.50;;;3.93;;
68923;SDS011;55961;52.156;20.942;2023-07-08T06:45:30;6.40;;;3.60;;
68923;SDS011;55961;52.156;20.942;2023-07-08T06:47:56;11.20;;;4.20;;
68923;SDS011;55961;52.156;20.942;2023-07-08T06:50:22;6.32;;;3.50;;
68923;SDS011;55961;52.156;20.942;2023-07-08T06:52:48;6.57;;;3.70;;
68923;SDS011;55961;52.156;20.942;2023-07-08T06:55:14;5.43;;;2.90;;
68923;SDS011;55961;52.156;20.942;2023-07-08T06:57:40;4.60;;;2.55;;
68923;SDS011;55961;52.156;20.942;2023-07-08T07:00:12;6.28;;;2.60;;
68923;SDS011;55961;52.156;20.942;2023-07-08T07:02:39;9.10;;;3.00;;
68923;SDS011;55961;52.156;20.942;2023-07-08T07:05:05;6.78;;;2.42;;
68923;SDS011;55961;52.156;20.942;2023-07-08T07:07:32;5.65;;;2.60;;
68923;SDS011;55961;52.156;20.942;2023-07-08T07:09:59;4.30;;;2.15;;
68923;SDS011;55961;52.156;20.942;2023-07-08T07:12:25;5.55;;;2.70;;
68923;SDS011;55961;52.156;20.942;2023-07-08T07:14:51;6.20;;;2.53;;
68923;SDS011;55961;52.156;20.942;2023-07-08T07:17:19;5.47;;;2.25;;
68923;SDS011;55961;52.156;20.942;2023-07-08T07:19:46;4.55;;;2.55;;
68923;SDS011;55961;52.156;20.942;2023-07-08T07:22:13;9.73;;;2.35;;
68923;SDS011;55961;52.156;20.942;2023-07-08T07:24:39;7.80;;;2.90;;
68923;SDS011;55961;52.156;20.942;2023-07-08T07:27:05;4.97;;;2.47;;
68923;SDS011;55961;52.156;20.942;2023-07-08T07:29:48;4.47;;;2.53;;
68923;SDS011;55961;52.156;20.942;2023-07-08T07:32:17;4.50;;;2.20;;
68923;SDS011;55961;52.156;20.942;2023-07-08T07:34:47;5.30;;;2.08;;
68923;SDS011;55961;52.156;20.942;2023-07-08T07:37:14;5.30;;;2.50;;
68923;SDS011;55961;52.156;20.942;2023-07-08T07:39:42;5.50;;;2.23;;
68923;SDS011;55961;52.156;20.942;2023-07-08T07:42:08;5.05;;;2.30;;
68923;SDS011;55961;52.156;20.942;2023-07-08T07:44:35;6.22;;;2.45;;
68923;SDS011;55961;52.156;20.942;2023-07-08T07:47:02;6.07;;;2.40;;
68923;SDS011;55961;52.156;20.942;2023-07-08T07:49:28;4.35;;;2.33;;
68923;SDS011;55961;52.156;20.942;2023-07-08T07:51:55;4.23;;;2.33;;
68923;SDS011;55961;52.156;20.942;2023-07-08T07:54:21;6.32;;;2.28;;
68923;SDS011;55961;52.156;20.942;2023-07-08T07:56:47;7.47;;;2.30;;
68923;SDS011;55961;52.156;20.942;2023-07-08T07:59:12;5.13;;;2.42;;
68923;SDS011;55961;52.156;20.942;2023-07-08T08:01:38;7.77;;;2.30;;
68923;SDS011;55961;52.156;20.942;2023-07-08T08:04:06;4.93;;;2.33;;
68923;SDS011;55961;52.156;20.942;2023-07-08T08:06:32;5.45;;;2.47;;
68923;SDS011;55961;52.156;20.942;2023-07-08T08:08:58;6.78;;;2.30;;
68923;SDS011;55961;52.156;20.942;2023-07-08T08:11:24;5.80;;;2.40;;
68923;SDS011;55961;52.156;20.942;2023-07-08T08:13:51;5.00;;;2.20;;
68923;SDS011;55961;52.156;20.942;2023-07-08T08:16:17;5.50;;;2.30;;
68923;SDS011;55961;52.156;20.942;2023-07-08T08:18:44;5.00;;;2.20;;
68923;SDS011;55961;52.156;20.942;2023-07-08T08:21:10;5.20;;;2.28;;
68923;SDS011;55961;52.156;20.942;2023-07-08T08:23:35;4.87;;;2.27;;
68923;SDS011;55961;52.156;20.942;2023-07-08T08:26:02;4.18;;;2.20;;
68923;SDS011;55961;52.156;20.942;2023-07-08T08:28:28;4.70;;;2.35;;
68923;SDS011;55961;52.156;20.942;2023-07-08T08:30:54;5.53;;;2.22;;
68923;SDS011;55961;52.156;20.942;2023-07-08T08:33:20;5.60;;;2.40;;
68923;SDS011;55961;52.156;20.942;2023-07-08T08:35:46;5.68;;;2.30;;
68923;SDS011;55961;52.156;20.942;2023-07-08T08:38:12;4.80;;;2.30;;
68923;SDS011;55961;52.156;20.942;2023-07-08T08:40:39;4.88;;;2.53;;
68923;SDS011;55961;52.156;20.942;2023-07-08T08:43:09;4.40;;;2.47;;
68923;SDS011;55961;52.156;20.942;2023-07-08T08:45:43;3.53;;;2.30;;
68923;SDS011;55961;52.156;20.942;2023-07-08T08:48:17;4.55;;;2.60;;
68923;SDS011;55961;52.156;20.942;2023-07-08T08:50:52;3.60;;;2.53;;
68923;SDS011;55961;52.156;20.942;2023-07-08T08:53:25;6.10;;;2.72;;
68923;SDS011;55961;52.156;20.942;2023-07-08T08:56:36;4.73;;;2.43;;
68923;SDS011;55961;52.156;20.942;2023-07-08T08:58:51;5.13;;;2.45;;
68923;SDS011;55961;52.156;20.942;2023-07-08T09:01:23;3.85;;;2.20;;
68923;SDS011;55961;52.156;20.942;2023-07-08T09:03:50;4.60;;;2.15;;
68923;SDS011;55961;52.156;20.942;2023-07-08T09:06:24;4.47;;;2.20;;
68923;SDS011;55961;52.156;20.942;2023-07-08T09:09:13;5.63;;;2.22;;
68923;SDS011;55961;52.156;20.942;2023-07-08T09:14:22;4.10;;;2.33;;
68923;SDS011;55961;52.156;20.942;2023-07-08T09:22:38;5.05;;;2.35;;
68923;SDS011;55961;52.156;20.942;2023-07-08T09:27:45;8.32;;;2.58;;
68923;SDS011;55961;52.156;20.942;2023-07-08T09:30:13;4.28;;;2.75;;
68923;SDS011;55961;52.156;20.942;2023-07-08T09:32:40;5.40;;;3.00;;
68923;SDS011;55961;52.156;20.942;2023-07-08T09:35:07;6.22;;;3.05;;
68923;SDS011;55961;52.156;20.942;2023-07-08T09:37:38;6.38;;;2.83;;
68923;SDS011;55961;52.156;20.942;2023-07-08T09:40:15;5.20;;;2.70;;
68923;SDS011;55961;52.156;20.942;2023-07-08T09:42:42;4.97;;;2.50;;
68923;SDS011;55961;52.156;20.942;2023-07-08T09:45:14;4.25;;;2.42;;
68923;SDS011;55961;52.156;20.942;2023-07-08T09:47:43;5.45;;;2.60;;
68923;SDS011;55961;52.156;20.942;2023-07-08T09:50:17;6.03;;;2.45;;
68923;SDS011;55961;52.156;20.942;2023-07-08T09:52:50;7.75;;;2.75;;
68923;SDS011;55961;52.156;20.942;2023-07-08T09:55:17;5.57;;;2.40;;
68923;SDS011;55961;52.156;20.942;2023-07-08T09:57:47;7.07;;;2.83;;
68923;SDS011;55961;52.156;20.942;2023-07-08T10:00:16;5.07;;;2.30;;
68923;SDS011;55961;52.156;20.942;2023-07-08T10:02:45;6.75;;;2.50;;
68923;SDS011;55961;52.156;20.942;2023-07-08T10:05:32;5.20;;;2.63;;
68923;SDS011;55961;52.156;20.942;2023-07-08T10:08:10;4.37;;;2.27;;
68923;SDS011;55961;52.156;20.942;2023-07-08T10:10:43;5.22;;;2.60;;
68923;SDS011;55961;52.156;20.942;2023-07-08T10:18:57;4.57;;;2.70;;
68923;SDS011;55961;52.156;20.942;2023-07-08T10:26:40;5.10;;;2.80;;
68923;SDS011;55961;52.156;20.942;2023-07-08T10:40:21;5.03;;;2.88;;
68923;SDS011;55961;52.156;20.942;2023-07-08T10:45:53;6.03;;;2.50;;
68923;SDS011;55961;52.156;20.942;2023-07-08T10:51:30;4.43;;;2.42;;
68923;SDS011;55961;52.156;20.942;2023-07-08T11:02:29;4.18;;;2.65;;
68923;SDS011;55961;52.156;20.942;2023-07-08T11:10:31;3.75;;;2.17;;
68923;SDS011;55961;52.156;20.942;2023-07-08T11:13:18;5.37;;;2.60;;
68923;SDS011;55961;52.156;20.942;2023-07-08T11:15:52;4.18;;;2.80;;
68923;SDS011;55961;52.156;20.942;2023-07-08T11:18:26;6.75;;;3.20;;
68923;SDS011;55961;52.156;20.942;2023-07-08T11:21:16;6.10;;;2.90;;
68923;SDS011;55961;52.156;20.942;2023-07-08T11:23:50;4.22;;;2.63;;
68923;SDS011;55961;52.156;20.942;2023-07-08T11:26:55;4.37;;;2.60;;
68923;SDS011;55961;52.156;20.942;2023-07-08T11:29:36;4.95;;;2.80;;
68923;SDS011;55961;52.156;20.942;2023-07-08T11:32:05;6.10;;;2.70;;
68923;SDS011;55961;52.156;20.942;2023-07-08T11:34:36;5.13;;;2.80;;
68923;SDS011;55961;52.156;20.942;2023-07-08T11:37:05;4.63;;;2.70;;
68923;SDS011;55961;52.156;20.942;2023-07-08T11:39:38;5.50;;;3.00;;
68923;SDS011;55961;52.156;20.942;2023-07-08T11:44:44;5.18;;;2.50;;
68923;SDS011;55961;52.156;20.942;2023-07-08T11:47:19;4.68;;;2.88;;
68923;SDS011;55961;52.156;20.942;2023-07-08T11:49:50;4.28;;;2.67;;
68923;SDS011;55961;52.156;20.942;2023-07-08T11:52:20;5.77;;;2.77;;
68923;SDS011;55961;52.156;20.942;2023-07-08T11:54:48;4.15;;;2.95;;
68923;SDS011;55961;52.156;20.942;2023-07-08T11:57:42;5.72;;;3.30;;
68923;SDS011;55961;52.156;20.942;2023-07-08T12:02:53;5.30;;;2.63;;
68923;SDS011;55961;52.156;20.942;2023-07-08T12:05:30;4.60;;;2.90;;
68923;SDS011;55961;52.156;20.942;2023-07-08T12:08:02;4.55;;;3.10;;
68923;SDS011;55961;52.156;20.942;2023-07-08T12:10:40;3.85;;;2.55;;
68923;SDS011;55961;52.156;20.942;2023-07-08T12:13:15;6.70;;;3.17;;
68923;SDS011;55961;52.156;20.942;2023-07-08T12:15:44;5.75;;;2.80;;
68923;SDS011;55961;52.156;20.942;2023-07-08T12:18:12;4.87;;;2.60;;
68923;SDS011;55961;52.156;20.942;2023-07-08T12:20:39;5.13;;;3.42;;
68923;SDS011;55961;52.156;20.942;2023-07-08T12:23:17;4.60;;;2.85;;
68923;SDS011;55961;52.156;20.942;2023-07-08T12:25:46;3.90;;;2.83;;
68923;SDS011;55961;52.156;20.942;2023-07-08T12:28:12;5.85;;;2.95;;
68923;SDS011;55961;52.156;20.942;2023-07-08T12:30:39;5.70;;;3.13;;
68923;SDS011;55961;52.156;20.942;2023-07-08T12:33:13;4.22;;;2.75;;
68923;SDS011;55961;52.156;20.942;2023-07-08T12:35:43;7.25;;;2.92;;
68923;SDS011;55961;52.156;20.942;2023-07-08T12:38:18;6.65;;;2.97;;
68923;SDS011;55961;52.156;20.942;2023-07-08T12:41:00;4.65;;;3.28;;
68923;SDS011;55961;52.156;20.942;2023-07-08T12:43:27;4.47;;;2.93;;
68923;SDS011;55961;52.156;20.942;2023-07-08T12:45:54;5.25;;;2.97;;
68923;SDS011;55961;52.156;20.942;2023-07-08T12:48:20;4.78;;;3.00;;
68923;SDS011;55961;52.156;20.942;2023-07-08T12:50:46;5.10;;;3.10;;
68923;SDS011;55961;52.156;20.942;2023-07-08T12:53:11;5.50;;;3.10;;
68923;SDS011;55961;52.156;20.942;2023-07-08T12:55:39;5.57;;;2.90;;
68923;SDS011;55961;52.156;20.942;2023-07-08T12:58:22;5.15;;;3.28;;
68923;SDS011;55961;52.156;20.942;2023-07-08T13:00:54;5.68;;;3.08;;
68923;SDS011;55961;52.156;20.942;2023-07-08T13:03:23;4.73;;;2.97;;
68923;SDS011;55961;52.156;20.942;2023-07-08T13:05:52;5.75;;;2.90;;
68923;SDS011;55961;52.156;20.942;2023-07-08T13:08:20;4.03;;;2.92;;
68923;SDS011;55961;52.156;20.942;2023-07-08T13:10:49;6.53;;;3.38;;
68923;SDS011;55961;52.156;20.942;2023-07-08T13:13:21;4.60;;;2.67;;
68923;SDS011;55961;52.156;20.942;2023-07-08T13:15:50;4.83;;;3.10;;
68923;SDS011;55961;52.156;20.942;2023-07-08T13:18:18;5.10;;;3.00;;
68923;SDS011;55961;52.156;20.942;2023-07-08T13:20:48;4.78;;;2.83;;
68923;SDS011;55961;52.156;20.942;2023-07-08T13:23:16;5.43;;;2.90;;
68923;SDS011;55961;52.156;20.942;2023-07-08T13:25:42;4.60;;;2.72;;
68923;SDS011;55961;52.156;20.942;2023-07-08T13:28:15;5.17;;;3.20;;
68923;SDS011;55961;52.156;20.942;2023-07-08T13:30:51;5.60;;;3.30;;
68923;SDS011;55961;52.156;20.942;2023-07-08T13:33:19;4.65;;;2.58;;
68923;SDS011;55961;52.156;20.942;2023-07-08T13:35:46;4.68;;;2.80;;
68923;SDS011;55961;52.156;20.942;2023-07-08T13:38:18;5.28;;;2.72;;
68923;SDS011;55961;52.156;20.942;2023-07-08T13:40:46;5.30;;;3.40;;
68923;SDS011;55961;52.156;20.942;2023-07-08T13:43:14;4.53;;;2.47;;
68923;SDS011;55961;52.156;20.942;2023-07-08T13:45:45;4.85;;;2.80;;
68923;SDS011;55961;52.156;20.942;2023-07-08T13:51:08;4.32;;;2.88;;
68923;SDS011;55961;52.156;20.942;2023-07-08T13:53:46;5.17;;;3.10;;
68923;SDS011;55961;52.156;20.942;2023-07-08T13:58:49;5.47;;;3.55;;
68923;SDS011;55961;52.156;20.942;2023-07-08T14:01:18;5.00;;;3.28;;
68923;SDS011;55961;52.156;20.942;2023-07-08T14:03:50;4.30;;;2.80;;
68923;SDS011;55961;52.156;20.942;2023-07-08T14:06:20;5.23;;;3.00;;
68923;SDS011;55961;52.156;20.942;2023-07-08T14:08:55;4.40;;;3.05;;
68923;SDS011;55961;52.156;20.942;2023-07-08T14:11:29;4.72;;;2.88;;
68923;SDS011;55961;52.156;20.942;2023-07-08T14:13:55;5.93;;;2.97;;
68923;SDS011;55961;52.156;20.942;2023-07-08T14:16:25;4.93;;;2.80;;
68923;SDS011;55961;52.156;20.942;2023-07-08T14:18:54;5.38;;;3.00;;
68923;SDS011;55961;52.156;20.942;2023-07-08T14:21:21;5.63;;;2.90;;
68923;SDS011;55961;52.156;20.942;2023-07-08T14:23:47;5.53;;;3.20;;
68923;SDS011;55961;52.156;20.942;2023-07-08T14:26:13;12.23;;;3.80;;
68923;SDS011;55961;52.156;20.942;2023-07-08T14:28:39;6.95;;;3.20;;
68923;SDS011;55961;52.156;20.942;2023-07-08T14:31:12;5.28;;;2.78;;
68923;SDS011;55961;52.156;20.942;2023-07-08T14:33:40;4.90;;;2.72;;
68923;SDS011;55961;52.156;20.942;2023-07-08T14:36:09;6.30;;;2.90;;
68923;SDS011;55961;52.156;20.942;2023-07-08T14:38:36;5.83;;;3.20;;
68923;SDS011;55961;52.156;20.942;2023-07-08T14:41:02;8.48;;;3.10;;
68923;SDS011;55961;52.156;20.942;2023-07-08T14:43:30;5.05;;;2.83;;
68923;SDS011;55961;52.156;20.942;2023-07-08T14:45:58;6.07;;;2.97;;
68923;SDS011;55961;52.156;20.942;2023-07-08T14:48:27;4.93;;;3.03;;
68923;SDS011;55961;52.156;20.942;2023-07-08T14:50:54;5.83;;;2.80;;
68923;SDS011;55961;52.156;20.942;2023-07-08T14:53:20;6.32;;;2.85;;
68923;SDS011;55961;52.156;20.942;2023-07-08T14:55:47;5.53;;;2.97;;
68923;SDS011;55961;52.156;20.942;2023-07-08T14:58:20;4.40;;;2.80;;
68923;SDS011;55961;52.156;20.942;2023-07-08T15:00:58;4.93;;;2.90;;
68923;SDS011;55961;52.156;20.942;2023-07-08T15:03:28;5.72;;;2.83;;
68923;SDS011;55961;52.156;20.942;2023-07-08T15:05:54;5.55;;;2.92;;
68923;SDS011;55961;52.156;20.942;2023-07-08T15:08:20;6.47;;;2.50;;
68923;SDS011;55961;52.156;20.942;2023-07-08T15:10:50;5.18;;;2.50;;
68923;SDS011;55961;52.156;20.942;2023-07-08T15:13:18;5.40;;;2.70;;
68923;SDS011;55961;52.156;20.942;2023-07-08T15:15:46;5.25;;;2.88;;
68923;SDS011;55961;52.156;20.942;2023-07-08T15:18:16;5.72;;;3.08;;
68923;SDS011;55961;52.156;20.942;2023-07-08T15:20:43;6.97;;;3.10;;
68923;SDS011;55961;52.156;20.942;2023-07-08T15:23:09;4.50;;;3.20;;
68923;SDS011;55961;52.156;20.942;2023-07-08T15:25:36;5.47;;;2.88;;
68923;SDS011;55961;52.156;20.942;2023-07-08T15:28:03;7.15;;;3.00;;
68923;SDS011;55961;52.156;20.942;2023-07-08T15:30:30;9.50;;;3.33;;
68923;SDS011;55961;52.156;20.942;2023-07-08T15:32:56;5.20;;;3.40;;
68923;SDS011;55961;52.156;20.942;2023-07-08T15:35:24;5.57;;;3.00;;
68923;SDS011;55961;52.156;20.942;2023-07-08T15:37:55;5.35;;;3.30;;
68923;SDS011;55961;52.156;20.942;2023-07-08T15:40:22;10.07;;;2.85;;
68923;SDS011;55961;52.156;20.942;2023-07-08T15:42:54;5.60;;;2.90;;
68923;SDS011;55961;52.156;20.942;2023-07-08T15:45:22;4.30;;;2.85;;
68923;SDS011;55961;52.156;20.942;2023-07-08T15:47:48;5.60;;;2.80;;